Time;durP1;ratioP1;P1;durP2;ratioP2;P2;SDS_P1;SDS_P2;PMS_P1;PMS_P2;Temp;Humidity;BMP_temperature;BMP_pressure;BME280_temperature;BME280_humidity;BME280_pressure;Samples;Min_cycle;Max_cycle;Signal;HPM_P1;HPM_P2
2023/08/18 00:01:25;;;;;;;4.03;2.73;;;21.10;12.80;;;;;;5075438;28;20272;-70
2023/08/18 00:03:51;;;;;;;3.67;2.80;;;21.10;12.80;;;;;;5093927;28;20217;-70
2023/08/18 00:06:16;;;;;;;3.10;2.40;;;21.10;12.90;;;;;;5094043;28;20484;-69
2023/08/18 00:08:42;;;;;;;6.03;3.20;;;21.10;12.80;;;;;;5093028;28;20741;-70
2023/08/18 00:11:08;;;;;;;4.90;3.13;;;21.00;12.80;;;;;;5093879;28;20176;-70
2023/08/18 00:13:34;;;;;;;3.50;3.20;;;21.00;12.80;;;;;;5093577;28;20189;-70
2023/08/18 00:16:00;;;;;;;3.90;3.00;;;21.00;13.70;;;;;;5093724;28;20422;-70
2023/08/18 00:18:25;;;;;;;4.60;3.23;;;20.90;14.10;;;;;;5093664;28;20178;-70
2023/08/18 00:20:51;;;;;;;4.00;3.37;;;20.80;14.50;;;;;;5093690;28;20234;-70
2023/08/18 00:23:17;;;;;;;3.73;2.80;;;20.70;14.60;;;;;;5093220;28;20197;-71
2023/08/18 00:25:42;;;;;;;5.10;3.50;;;20.70;14.60;;;;;;5093638;28;20179;-70
2023/08/18 00:28:08;;;;;;;3.83;2.80;;;20.70;14.50;;;;;;5093504;28;20176;-69
2023/08/18 00:30:34;;;;;;;5.07;2.93;;;20.60;15.10;;;;;;5093388;28;20650;-70
2023/08/18 00:33:00;;;;;;;4.13;2.80;;;20.60;15.30;;;;;;5092463;28;20447;-70
2023/08/18 00:35:26;;;;;;;4.90;3.60;;;20.40;15.10;;;;;;5093563;28;20209;-70
2023/08/18 00:37:51;;;;;;;3.87;3.30;;;20.40;15.20;;;;;;5093313;28;20442;-70
2023/08/18 00:40:17;;;;;;;2.70;2.40;;;20.40;15.40;;;;;;5093301;28;20173;-70
2023/08/18 00:42:43;;;;;;;3.00;2.20;;;20.40;16.10;;;;;;5092778;28;20220;-70
2023/08/18 00:45:09;;;;;;;3.67;2.97;;;20.30;15.90;;;;;;5093106;28;20182;-70
2023/08/18 00:47:36;;;;;;;6.53;2.30;;;20.20;19.10;;;;;;5093030;28;20547;-70
2023/08/18 00:50:02;;;;;;;4.13;2.53;;;20.10;20.10;;;;;;5093086;28;20770;-70
2023/08/18 00:52:28;;;;;;;3.20;2.60;;;20.00;21.00;;;;;;5092712;28;21033;-70
2023/08/18 00:54:54;;;;;;;5.10;3.00;;;19.90;20.10;;;;;;5093020;28;20502;-70
2023/08/18 00:57:20;;;;;;;3.77;2.67;;;19.90;21.40;;;;;;5092875;28;20185;-70
2023/08/18 00:59:46;;;;;;;4.80;2.33;;;19.80;20.80;;;;;;5092854;28;20721;-70
2023/08/18 01:02:12;;;;;;;4.63;2.60;;;19.70;21.40;;;;;;5092572;28;20256;-70
2023/08/18 01:04:38;;;;;;;4.50;3.03;;;19.60;21.60;;;;;;5092689;28;20459;-70
2023/08/18 01:07:04;;;;;;;4.37;2.90;;;19.60;21.70;;;;;;5092883;28;20937;-71
2023/08/18 01:09:31;;;;;;;6.60;3.40;;;19.50;22.10;;;;;;5092507;28;20751;-70
2023/08/18 01:12:23;;;;;;;4.20;3.10;;;19.50;22.80;;;;;;5092434;28;20439;-70
2023/08/18 01:15:08;;;;;;;4.63;3.40;;;19.40;23.10;;;;;;5092884;28;20852;-70
2023/08/18 01:17:54;;;;;;;4.57;3.30;;;19.30;23.30;;;;;;5092583;28;20415;-70
2023/08/18 01:20:21;;;;;;;4.40;2.60;;;19.30;23.90;;;;;;5091507;28;20429;-70
2023/08/18 01:22:53;;;;;;;3.13;2.10;;;19.30;24.20;;;;;;5092005;28;20837;-70
2023/08/18 01:25:19;;;;;;;4.40;3.10;;;19.20;25.00;;;;;;5092493;28;20413;-69
2023/08/18 01:27:44;;;;;;;3.57;2.60;;;19.10;25.80;;;;;;5092348;28;20498;-70
2023/08/18 01:30:11;;;;;;;5.80;2.80;;;19.10;25.40;;;;;;5092441;28;20274;-69
2023/08/18 01:32:46;;;;;;;3.70;2.83;;;19.10;25.90;;;;;;5091626;28;20197;-70
2023/08/18 01:35:13;;;;;;;4.20;3.00;;;19.10;25.90;;;;;;5092261;28;20497;-70
2023/08/18 01:37:41;;;;;;;6.03;3.00;;;19.10;25.70;;;;;;5092174;28;20995;-70
2023/08/18 01:40:11;;;;;;;4.00;3.00;;;19.00;26.30;;;;;;5092374;28;20435;-70
2023/08/18 01:42:37;;;;;;;6.83;4.00;;;19.00;25.90;;;;;;5092540;28;20436;-70
2023/08/18 01:45:03;;;;;;;5.00;3.50;;;19.00;25.90;;;;;;5092246;28;20986;-70
2023/08/18 01:47:29;;;;;;;5.17;3.37;;;19.00;26.20;;;;;;5092360;28;20173;-70
2023/08/18 01:49:56;;;;;;;4.10;3.70;;;19.00;26.40;;;;;;5092172;28;20412;-69
2023/08/18 01:52:21;;;;;;;5.27;3.77;;;19.00;26.80;;;;;;5091665;28;20495;-69
2023/08/18 01:54:47;;;;;;;5.90;3.47;;;19.00;26.60;;;;;;5092137;28;20435;-69
2023/08/18 01:57:12;;;;;;;5.10;3.87;;;19.00;27.20;;;;;;5091893;28;20177;-69
2023/08/18 01:59:38;;;;;;;5.30;4.00;;;19.00;27.60;;;;;;5092263;28;20177;-70
2023/08/18 02:02:03;;;;;;;4.60;3.47;;;18.90;28.10;;;;;;5091990;28;20274;-68
2023/08/18 02:04:29;;;;;;;5.60;3.53;;;18.90;27.90;;;;;;5092133;28;20189;-69
2023/08/18 02:06:55;;;;;;;7.60;3.60;;;19.00;27.70;;;;;;5092167;28;20249;-69
2023/08/18 02:09:21;;;;;;;3.80;2.77;;;18.90;28.20;;;;;;5091835;28;20233;-69
2023/08/18 02:11:46;;;;;;;4.10;3.70;;;18.90;28.00;;;;;;5092068;28;20529;-69
2023/08/18 02:14:12;;;;;;;6.40;4.40;;;18.90;28.70;;;;;;5091993;28;20430;-69
2023/08/18 02:16:37;;;;;;;7.30;3.60;;;18.80;28.60;;;;;;5092330;28;20177;-69
2023/08/18 02:19:03;;;;;;;5.50;3.63;;;18.80;28.60;;;;;;5074444;28;20267;-70
2023/08/18 02:21:31;;;;;;;3.93;3.07;;;18.80;28.60;;;;;;5092915;28;20272;-70
2023/08/18 02:23:56;;;;;;;9.97;3.20;;;18.80;28.60;;;;;;5093218;28;20217;-70
2023/08/18 02:26:22;;;;;;;6.07;3.30;;;18.70;29.40;;;;;;5092354;28;20502;-70
2023/08/18 02:28:47;;;;;;;6.67;3.70;;;18.60;30.00;;;;;;5092358;28;20196;-70
2023/08/18 02:31:13;;;;;;;6.30;3.70;;;18.70;29.30;;;;;;5073751;28;20181;-70
2023/08/18 02:33:38;;;;;;;4.53;3.53;;;18.60;29.70;;;;;;5095522;28;20211;-70
2023/08/18 02:36:04;;;;;;;5.57;3.47;;;18.70;29.20;;;;;;5096412;28;20177;-69
2023/08/18 02:38:32;;;;;;;5.80;3.90;;;18.70;28.60;;;;;;5096150;28;20230;-70
2023/08/18 02:40:58;;;;;;;3.60;2.50;;;18.60;28.50;;;;;;5096091;28;20173;-69
2023/08/18 02:43:24;;;;;;;4.20;2.53;;;18.60;28.50;;;;;;5095827;28;20475;-69
2023/08/18 02:45:55;;;;;;;4.60;3.60;;;18.50;28.70;;;;;;5096262;28;20181;-69
2023/08/18 02:48:21;;;;;;;3.83;3.13;;;18.50;30.70;;;;;;5095899;28;20418;-69
2023/08/18 02:50:47;;;;;;;14.90;3.50;;;18.40;31.30;;;;;;5077514;28;20420;-69
2023/08/18 02:53:13;;;;;;;4.70;3.67;;;18.40;33.10;;;;;;5077331;28;20208;-69
2023/08/18 02:55:39;;;;;;;6.23;3.87;;;18.30;33.50;;;;;;5095557;28;20196;-69
2023/08/18 02:58:05;;;;;;;4.37;2.07;;;18.20;34.30;;;;;;5095890;28;20421;-69
2023/08/18 03:00:31;;;;;;;8.53;3.80;;;18.20;34.70;;;;;;5095807;28;20912;-69
2023/08/18 03:02:58;;;;;;;9.43;4.00;;;18.10;36.40;;;;;;5095411;28;20274;-71
2023/08/18 03:05:24;;;;;;;9.70;2.80;;;18.00;36.50;;;;;;5096286;28;20494;-68
2023/08/18 03:07:49;;;;;;;6.90;3.60;;;18.00;37.30;;;;;;5077302;28;21027;-71
2023/08/18 03:10:15;;;;;;;3.40;2.80;;;18.00;36.80;;;;;;5095669;28;20201;-69
2023/08/18 03:12:40;;;;;;;7.30;3.00;;;18.00;36.20;;;;;;5095542;28;20521;-69
2023/08/18 03:15:07;;;;;;;4.93;2.93;;;17.90;36.60;;;;;;5095518;28;20177;-69
2023/08/18 03:17:32;;;;;;;6.23;3.70;;;17.90;37.00;;;;;;5095820;28;20177;-71
2023/08/18 03:19:58;;;;;;;5.20;3.27;;;17.90;38.00;;;;;;5095569;28;20446;-69
2023/08/18 03:22:23;;;;;;;5.07;3.90;;;17.90;38.00;;;;;;5095054;28;20208;-68
2023/08/18 03:24:49;;;;;;;3.77;2.67;;;17.90;38.00;;;;;;5095521;28;20254;-68
2023/08/18 03:27:14;;;;;;;6.13;2.60;;;17.80;37.90;;;;;;5095951;28;20177;-69
2023/08/18 03:29:40;;;;;;;6.50;3.20;;;17.80;37.90;;;;;;5095579;28;20185;-69
2023/08/18 03:32:06;;;;;;;7.33;3.20;;;17.80;37.30;;;;;;5094512;28;20197;-69
2023/08/18 03:34:31;;;;;;;3.20;2.50;;;17.80;36.10;;;;;;5095914;28;20173;-69
2023/08/18 03:36:57;;;;;;;5.47;3.60;;;17.80;37.50;;;;;;5095764;28;20201;-69
2023/08/18 03:39:22;;;;;;;4.93;3.73;;;17.70;38.80;;;;;;5095445;28;20181;-69
2023/08/18 03:41:48;;;;;;;3.20;2.40;;;17.80;38.80;;;;;;5094881;28;20181;-69
2023/08/18 03:44:14;;;;;;;6.13;2.80;;;17.70;40.40;;;;;;5094394;28;20576;-69
2023/08/18 03:46:39;;;;;;;7.90;2.67;;;17.60;40.80;;;;;;5094842;28;20238;-69
2023/08/18 03:49:06;;;;;;;4.03;2.93;;;17.50;40.90;;;;;;5094749;28;20525;-70
2023/08/18 03:51:32;;;;;;;4.03;2.60;;;17.40;41.90;;;;;;5094753;28;20174;-69
2023/08/18 03:53:58;;;;;;;6.83;2.73;;;17.40;42.50;;;;;;5095333;28;20947;-70
2023/08/18 03:56:24;;;;;;;6.33;3.27;;;17.40;42.30;;;;;;5095058;28;20415;-69
2023/08/18 03:58:49;;;;;;;4.20;3.30;;;17.40;41.80;;;;;;5094563;28;20307;-69
2023/08/18 04:01:15;;;;;;;4.43;2.87;;;17.30;41.80;;;;;;5094400;28;20430;-69
2023/08/18 04:03:43;;;;;;;6.77;3.30;;;17.30;41.90;;;;;;5094104;28;20224;-69
2023/08/18 04:06:09;;;;;;;4.80;2.80;;;17.30;42.30;;;;;;5094389;28;20196;-69
2023/08/18 04:08:40;;;;;;;5.13;3.40;;;17.30;42.70;;;;;;5094295;28;20411;-69
2023/08/18 04:11:05;;;;;;;4.40;2.90;;;17.30;42.70;;;;;;5094362;28;20500;-69
2023/08/18 04:13:31;;;;;;;3.93;3.43;;;17.30;42.70;;;;;;5093284;28;20466;-69
2023/08/18 04:15:57;;;;;;;3.93;3.27;;;17.40;42.80;;;;;;5075937;28;20226;-69
2023/08/18 04:18:23;;;;;;;4.97;3.10;;;17.40;42.40;;;;;;5094192;28;20165;-70
2023/08/18 04:20:49;;;;;;;5.97;3.73;;;17.30;42.20;;;;;;5075831;28;20777;-69
2023/08/18 04:23:15;;;;;;;3.30;2.50;;;17.40;41.10;;;;;;5093864;28;20473;-70
2023/08/18 04:25:44;;;;;;;2.83;2.30;;;17.40;40.80;;;;;;5094050;28;20169;-71
2023/08/18 04:28:10;;;;;;;4.07;3.23;;;17.40;40.90;;;;;;5095010;28;20173;-71
2023/08/18 04:30:36;;;;;;;4.10;2.73;;;17.40;41.10;;;;;;5094481;28;20443;-70
2023/08/18 04:33:02;;;;;;;4.40;2.90;;;17.40;39.80;;;;;;5094689;28;20189;-71
2023/08/18 04:35:28;;;;;;;4.87;2.90;;;17.50;39.10;;;;;;5095687;28;20479;-71
2023/08/18 04:37:57;;;;;;;5.20;3.47;;;17.60;39.20;;;;;;5075810;28;20721;-69
2023/08/18 04:40:23;;;;;;;4.10;3.10;;;17.50;39.90;;;;;;5094018;28;20678;-69
2023/08/18 04:42:49;;;;;;;4.40;2.70;;;17.50;40.10;;;;;;5093511;28;20550;-69
2023/08/18 04:45:15;;;;;;;6.27;2.93;;;17.50;40.10;;;;;;5093771;28;20411;-70
2023/08/18 04:47:40;;;;;;;5.40;2.60;;;17.50;41.00;;;;;;5093948;28;20411;-71
2023/08/18 04:50:06;;;;;;;4.47;2.53;;;17.50;40.60;;;;;;5075757;28;20263;-72
2023/08/18 04:52:32;;;;;;;3.60;2.53;;;17.60;38.80;;;;;;5093056;28;20209;-72
2023/08/18 04:54:58;;;;;;;4.73;2.90;;;17.70;38.70;;;;;;5093456;28;20412;-71
2023/08/18 04:57:23;;;;;;;3.80;3.20;;;17.80;38.70;;;;;;5093102;28;20212;-70
2023/08/18 04:59:49;;;;;;;6.00;3.67;;;17.80;38.50;;;;;;5093628;28;20184;-71
2023/08/18 05:02:15;;;;;;;5.70;3.47;;;17.90;38.00;;;;;;5074739;28;20181;-71
2023/08/18 05:04:40;;;;;;;4.10;3.10;;;18.00;36.30;;;;;;5093061;28;20212;-71
2023/08/18 05:07:06;;;;;;;5.43;2.73;;;18.00;37.40;;;;;;5094473;28;20364;-71
2023/08/18 05:09:32;;;;;;;3.77;2.60;;;18.10;37.30;;;;;;5094896;28;20180;-71
2023/08/18 05:11:57;;;;;;;4.80;3.23;;;18.10;36.60;;;;;;5075078;28;20682;-71
2023/08/18 05:14:23;;;;;;;5.33;3.47;;;18.20;36.50;;;;;;5093356;28;20189;-71
2023/08/18 05:16:48;;;;;;;4.53;3.63;;;18.30;35.70;;;;;;5093258;28;20222;-71
2023/08/18 05:19:14;;;;;;;6.27;3.30;;;18.40;36.00;;;;;;5093131;28;20185;-72
2023/08/18 05:21:40;;;;;;;3.50;2.53;;;18.30;35.90;;;;;;5075334;28;20177;-72
2023/08/18 05:24:05;;;;;;;6.00;3.37;;;18.40;35.50;;;;;;5092894;28;20212;-71
2023/08/18 05:26:31;;;;;;;6.30;3.07;;;18.50;35.00;;;;;;5093743;28;20170;-70
2023/08/18 05:28:57;;;;;;;6.07;3.70;;;18.70;34.60;;;;;;5092756;28;20173;-70
2023/08/18 05:31:22;;;;;;;4.10;2.97;;;18.90;33.70;;;;;;5092664;28;20181;-69
2023/08/18 05:33:48;;;;;;;4.30;2.93;;;19.10;33.30;;;;;;5092651;28;20223;-69
2023/08/18 05:36:13;;;;;;;5.03;3.23;;;19.40;31.90;;;;;;5092713;28;20231;-69
2023/08/18 05:38:39;;;;;;;6.93;4.33;;;19.70;29.30;;;;;;5092880;28;20195;-70
2023/08/18 05:41:13;;;;;;;4.90;3.37;;;20.00;28.40;;;;;;5092672;28;20535;-69
2023/08/18 05:43:40;;;;;;;4.60;3.30;;;20.30;27.30;;;;;;5073924;28;20212;-69
2023/08/18 05:46:06;;;;;;;3.57;2.93;;;21.00;24.60;;;;;;5092678;28;20446;-70
2023/08/18 05:48:32;;;;;;;5.00;4.13;;;22.70;20.70;;;;;;5075238;28;20411;-71
2023/08/18 05:50:58;;;;;;;5.63;3.43;;;25.10;12.30;;;;;;5092278;28;20403;-71
2023/08/18 05:53:24;;;;;;;3.53;3.10;;;27.00;6.30;;;;;;5092322;28;20287;-71
2023/08/18 05:55:50;;;;;;;5.67;3.87;;;29.00;1.80;;;;;;5091928;28;20560;-71
2023/08/18 05:58:16;;;;;;;7.33;4.50;;;30.70;1.00;;;;;;5092153;28;20621;-71
2023/08/18 06:00:42;;;;;;;4.50;4.10;;;32.40;1.00;;;;;;5092446;28;20407;-71
2023/08/18 06:03:07;;;;;;;4.83;4.43;;;33.70;1.00;;;;;;5074691;28;20426;-75
2023/08/18 06:05:36;;;;;;;4.73;4.33;;;34.60;1.00;;;;;;5075430;28;20564;-72
2023/08/18 06:08:02;;;;;;;6.87;4.83;;;35.20;1.00;;;;;;5092845;28;20513;-73
2023/08/18 06:10:27;;;;;;;17.73;5.30;;;34.60;1.00;;;;;;5093744;28;20423;-72
2023/08/18 06:12:53;;;;;;;4.93;4.53;;;34.00;1.00;;;;;;5093116;28;20431;-72
2023/08/18 06:15:20;;;;;;;5.57;5.17;;;34.00;1.00;;;;;;5092895;28;20169;-72
2023/08/18 06:17:47;;;;;;;7.90;5.30;;;34.20;1.00;;;;;;5092807;28;20655;-72
2023/08/18 06:20:13;;;;;;;5.60;5.10;;;34.90;1.00;;;;;;5092727;28;20415;-73
2023/08/18 06:22:39;;;;;;;6.50;5.90;;;35.40;1.00;;;;;;5092052;28;20882;-72
2023/08/18 06:25:07;;;;;;;8.13;5.90;;;35.80;1.00;;;;;;5092235;28;20666;-71
2023/08/18 06:27:35;;;;;;;5.73;4.60;;;35.70;1.00;;;;;;5092208;28;20169;-72
2023/08/18 06:30:04;;;;;;;6.63;5.80;;;35.80;1.00;;;;;;5092206;28;20403;-71
2023/08/18 06:32:30;;;;;;;6.77;6.23;;;36.30;1.00;;;;;;5091598;28;20471;-71
2023/08/18 06:34:55;;;;;;;5.33;4.93;;;35.90;1.00;;;;;;5092409;28;20934;-70
2023/08/18 06:37:21;;;;;;;6.17;5.23;;;37.00;1.00;;;;;;5092312;28;20178;-72
2023/08/18 06:39:46;;;;;;;5.37;4.97;;;37.00;1.00;;;;;;5091953;28;20185;-72
2023/08/18 06:42:12;;;;;;;6.23;5.73;;;37.90;1.00;;;;;;5073310;28;20185;-72
2023/08/18 06:44:38;;;;;;;6.17;5.60;;;38.50;1.00;;;;;;5092262;28;20282;-72
2023/08/18 06:47:04;;;;;;;5.97;5.37;;;37.00;1.00;;;;;;5074187;28;20454;-71
2023/08/18 06:49:33;;;;;;;5.40;5.00;;;37.30;1.00;;;;;;5091897;28;20181;-72
2023/08/18 06:51:58;;;;;;;5.87;5.47;;;36.70;1.00;;;;;;5091129;28;20263;-71
2023/08/18 06:54:24;;;;;;;6.60;6.10;;;37.00;1.00;;;;;;5090960;28;20506;-71
2023/08/18 06:56:49;;;;;;;6.00;5.60;;;37.70;1.00;;;;;;5091574;28;20212;-71
2023/08/18 06:59:22;;;;;;;6.60;6.10;;;38.70;1.00;;;;;;5091813;28;20261;-73
2023/08/18 07:01:47;;;;;;;5.50;5.00;;;39.00;1.00;;;;;;5074605;28;20181;-71
2023/08/18 07:04:13;;;;;;;6.43;6.03;;;38.70;1.00;;;;;;5091359;28;20963;-72
2023/08/18 07:06:44;;;;;;;6.03;5.43;;;38.80;1.00;;;;;;5091403;28;20597;-71
2023/08/18 07:09:10;;;;;;;5.83;5.33;;;38.50;1.00;;;;;;5091735;28;20176;-71
2023/08/18 07:11:36;;;;;;;6.13;5.73;;;38.20;1.00;;;;;;5091010;28;20774;-72
2023/08/18 07:14:03;;;;;;;6.43;5.83;;;38.70;1.00;;;;;;5091625;28;20480;-71
2023/08/18 07:16:29;;;;;;;7.70;5.80;;;38.30;1.00;;;;;;5091695;28;20242;-70
2023/08/18 07:18:54;;;;;;;5.77;5.37;;;38.20;1.00;;;;;;5092394;28;21002;-76
2023/08/18 07:21:20;;;;;;;5.90;5.40;;;38.80;1.00;;;;;;5095438;28;20482;-71
2023/08/18 07:23:45;;;;;;;7.67;5.43;;;39.70;1.00;;;;;;5094722;28;20197;-71
2023/08/18 07:26:11;;;;;;;6.17;5.77;;;39.70;1.00;;;;;;5077503;28;20174;-71
2023/08/18 07:28:37;;;;;;;5.87;5.37;;;39.40;1.00;;;;;;5095374;28;20185;-69
2023/08/18 07:31:07;;;;;;;6.87;5.93;;;38.60;1.00;;;;;;5095411;28;20542;-71
2023/08/18 07:33:34;;;;;;;5.20;4.90;;;40.00;1.00;;;;;;5096040;28;20697;-71
2023/08/18 07:35:59;;;;;;;5.60;5.20;;;39.90;1.00;;;;;;5077154;28;20431;-70
2023/08/18 07:38:25;;;;;;;5.73;5.13;;;39.90;1.00;;;;;;5094898;28;20414;-70
2023/08/18 07:40:54;;;;;;;8.23;5.20;;;39.30;1.00;;;;;;5094641;28;20264;-69
2023/08/18 07:43:20;;;;;;;5.63;5.13;;;38.30;1.00;;;;;;5095233;28;20559;-70
2023/08/18 07:45:46;;;;;;;5.40;4.90;;;37.30;1.00;;;;;;5076908;28;20422;-70
2023/08/18 07:48:12;;;;;;;5.17;4.77;;;36.00;1.00;;;;;;5095102;28;20182;-70
2023/08/18 07:50:39;;;;;;;7.53;4.90;;;34.40;1.00;;;;;;5095309;28;20169;-74
2023/08/18 07:53:05;;;;;;;5.27;4.83;;;33.10;1.00;;;;;;5093956;28;20481;-70
2023/08/18 07:55:30;;;;;;;7.00;4.90;;;32.20;1.00;;;;;;5094335;28;20443;-69
2023/08/18 07:57:56;;;;;;;7.90;4.93;;;31.40;1.00;;;;;;5094380;28;20169;-70
2023/08/18 08:00:21;;;;;;;5.47;4.87;;;31.00;1.00;;;;;;5094391;28;20170;-70
2023/08/18 08:02:48;;;;;;;4.77;4.43;;;30.70;1.00;;;;;;5075735;28;20228;-70
2023/08/18 08:05:19;;;;;;;4.70;4.30;;;30.60;1.00;;;;;;5094048;28;20212;-71
2023/08/18 08:07:45;;;;;;;4.43;4.03;;;31.40;1.00;;;;;;5073854;28;20412;-70
2023/08/18 08:10:11;;;;;;;4.40;4.07;;;31.90;1.00;;;;;;5073857;28;20916;-70
2023/08/18 08:12:38;;;;;;;4.67;4.27;;;32.30;1.00;;;;;;5073529;28;20428;-70
2023/08/18 08:15:05;;;;;;;4.43;4.07;;;32.60;1.00;;;;;;5073988;28;20414;-70
2023/08/18 08:17:32;;;;;;;4.10;3.80;;;33.30;1.00;;;;;;5069469;28;20426;-71
2023/08/18 08:20:00;;;;;;;4.73;4.40;;;35.00;1.00;;;;;;5075896;28;20423;-70
2023/08/18 08:22:25;;;;;;;5.30;4.90;;;37.00;1.00;;;;;;5075550;28;20481;-70
2023/08/18 08:24:54;;;;;;;8.60;5.13;;;38.60;1.00;;;;;;5075706;28;20494;-71
2023/08/18 08:27:20;;;;;;;5.20;4.70;;;39.00;1.00;;;;;;5093862;28;20165;-70
2023/08/18 08:29:46;;;;;;;5.20;4.70;;;38.60;1.00;;;;;;5093088;28;20473;-72
2023/08/18 08:32:11;;;;;;;7.73;5.20;;;38.00;1.00;;;;;;5094781;28;20413;-70
2023/08/18 08:34:47;;;;;;;5.80;5.30;;;37.70;1.00;;;;;;5092248;28;20382;-71
2023/08/18 08:37:12;;;;;;;6.10;5.60;;;37.90;1.00;;;;;;5089280;28;20219;-70
2023/08/18 08:39:38;;;;;;;5.60;5.10;;;37.50;1.00;;;;;;5089537;28;20462;-71
2023/08/18 08:42:04;;;;;;;4.93;4.53;;;38.80;1.00;;;;;;5089722;28;20181;-70
2023/08/18 08:44:30;;;;;;;5.43;5.03;;;40.10;1.00;;;;;;5071026;28;20258;-71
2023/08/18 08:46:57;;;;;;;5.17;4.87;;;39.90;1.00;;;;;;5089682;28;20200;-75
2023/08/18 08:49:24;;;;;;;5.63;5.23;;;40.30;1.00;;;;;;5090358;28;20708;-71
2023/08/18 08:51:50;;;;;;;5.90;5.40;;;41.40;1.00;;;;;;5088751;28;20424;-71
2023/08/18 08:54:20;;;;;;;5.13;4.73;;;41.20;1.00;;;;;;5089169;28;20438;-71
2023/08/18 08:56:49;;;;;;;7.57;4.90;;;41.30;1.00;;;;;;5089990;28;20865;-71
2023/08/18 08:59:15;;;;;;;5.30;4.40;;;41.90;1.00;;;;;;5089307;28;20419;-70
2023/08/18 09:01:41;;;;;;;4.80;4.30;;;40.30;1.00;;;;;;5088747;28;20411;-71
2023/08/18 09:04:08;;;;;;;5.00;4.60;;;38.60;1.00;;;;;;5071418;28;20562;-71
2023/08/18 09:06:34;;;;;;;7.23;4.83;;;36.40;1.00;;;;;;5089519;28;20180;-71
2023/08/18 09:09:00;;;;;;;5.97;5.00;;;34.50;1.00;;;;;;5089267;28;20733;-71
2023/08/18 09:11:42;;;;;;;5.80;5.20;;;32.70;1.00;;;;;;5089153;28;20272;-71
2023/08/18 09:14:08;;;;;;;5.57;5.07;;;31.10;1.00;;;;;;5089104;28;20435;-71
2023/08/18 09:16:34;;;;;;;13.13;5.23;;;30.10;1.00;;;;;;5089601;28;20426;-70
2023/08/18 09:19:01;;;;;;;4.93;4.53;;;29.60;1.00;;;;;;5089012;28;20571;-71
2023/08/18 09:21:26;;;;;;;5.03;4.60;;;29.30;1.00;;;;;;5088416;28;20490;-70
2023/08/18 09:23:56;;;;;;;7.60;4.27;;;28.90;1.00;;;;;;5089288;28;21048;-71
2023/08/18 09:26:22;;;;;;;4.23;3.83;;;28.70;1.00;;;;;;5089041;28;20371;-70
2023/08/18 09:28:48;;;;;;;3.90;3.37;;;28.60;1.00;;;;;;5088759;28;20777;-70
2023/08/18 09:31:14;;;;;;;4.10;3.70;;;28.50;1.00;;;;;;5088909;28;20427;-71
2023/08/18 09:33:39;;;;;;;4.63;4.23;;;28.50;1.00;;;;;;5088335;28;20469;-70
2023/08/18 09:36:05;;;;;;;8.30;4.30;;;28.50;1.00;;;;;;5088379;28;20173;-71
2023/08/18 09:38:41;;;;;;;7.90;4.40;;;28.50;1.00;;;;;;5070795;28;20269;-70
2023/08/18 09:41:08;;;;;;;5.97;3.70;;;28.60;1.00;;;;;;5088460;28;20181;-71
2023/08/18 09:43:34;;;;;;;8.07;4.40;;;28.60;1.00;;;;;;5087674;28;20566;-70
2023/08/18 09:46:03;;;;;;;6.67;4.07;;;28.70;1.00;;;;;;5091112;28;20430;-73
2023/08/18 09:48:37;;;;;;;4.80;4.23;;;28.80;1.00;;;;;;5092801;28;20415;-72
2023/08/18 09:51:07;;;;;;;6.00;3.97;;;28.90;1.00;;;;;;5074411;28;20415;-72
2023/08/18 09:53:33;;;;;;;5.47;3.50;;;29.10;1.00;;;;;;5092028;28;20932;-72
2023/08/18 09:56:13;;;;;;;4.23;3.73;;;29.20;1.00;;;;;;5092389;28;20435;-72
2023/08/18 09:58:52;;;;;;;4.60;4.20;;;29.20;1.00;;;;;;5092515;28;20577;-72
2023/08/18 10:01:18;;;;;;;5.63;4.23;;;29.20;1.00;;;;;;5092911;28;20419;-72
2023/08/18 10:03:46;;;;;;;4.00;3.70;;;29.20;1.00;;;;;;5093108;28;20470;-72
2023/08/18 10:06:12;;;;;;;4.27;3.87;;;29.30;1.00;;;;;;5092641;28;20450;-72
2023/08/18 10:08:39;;;;;;;4.10;3.80;;;29.40;1.00;;;;;;5092254;28;20943;-72
2023/08/18 10:11:05;;;;;;;4.93;4.13;;;29.50;1.00;;;;;;5092417;28;20472;-72
2023/08/18 10:13:33;;;;;;;4.10;3.80;;;29.80;1.00;;;;;;5074286;28;20449;-72
2023/08/18 10:16:04;;;;;;;3.73;3.43;;;29.80;1.00;;;;;;5092227;28;20423;-73
2023/08/18 10:18:30;;;;;;;4.40;4.00;;;30.00;1.00;;;;;;5074023;28;20501;-73
2023/08/18 10:20:56;;;;;;;6.30;4.33;;;30.00;1.00;;;;;;5092006;28;20521;-72
2023/08/18 10:23:29;;;;;;;6.17;4.67;;;30.10;1.00;;;;;;5091969;28;20463;-72
2023/08/18 10:25:54;;;;;;;6.40;5.23;;;30.20;1.00;;;;;;5092280;28;20407;-70
2023/08/18 10:28:22;;;;;;;4.60;4.30;;;30.30;1.00;;;;;;5092504;28;20430;-72
2023/08/18 10:30:57;;;;;;;4.30;3.90;;;30.40;1.00;;;;;;5092099;28;20185;-72
2023/08/18 10:33:43;;;;;;;4.33;3.57;;;30.60;1.00;;;;;;5073977;28;20529;-72
2023/08/18 10:36:09;;;;;;;4.43;4.13;;;30.70;1.00;;;;;;5092058;28;20908;-72
2023/08/18 10:38:36;;;;;;;7.00;4.20;;;30.80;1.00;;;;;;5092195;28;20411;-72
2023/08/18 10:41:03;;;;;;;4.70;4.30;;;30.80;1.00;;;;;;5092047;28;20420;-72
2023/08/18 10:43:29;;;;;;;4.60;4.30;;;31.00;1.00;;;;;;5091706;28;20541;-72
2023/08/18 10:46:00;;;;;;;4.63;4.23;;;31.00;1.00;;;;;;5091934;28;20423;-70
2023/08/18 10:48:32;;;;;;;4.07;3.87;;;31.10;1.00;;;;;;5057348;28;20423;-70
2023/08/18 10:50:58;;;;;;;4.20;3.80;;;31.30;1.00;;;;;;5091838;28;20414;-70
2023/08/18 10:53:24;;;;;;;4.60;4.20;;;31.40;1.00;;;;;;5093435;28;21076;-70
2023/08/18 10:55:53;;;;;;;4.10;3.80;;;31.70;1.00;;;;;;5095619;28;20185;-70
2023/08/18 10:58:22;;;;;;;7.43;5.60;;;31.90;1.00;;;;;;5095789;28;20260;-70
2023/08/18 11:00:49;;;;;;;5.57;4.60;;;31.90;1.00;;;;;;5077595;28;20430;-71
2023/08/18 11:03:15;;;;;;;4.70;4.37;;;32.00;1.00;;;;;;5095571;28;20488;-71
2023/08/18 11:05:41;;;;;;;4.43;4.13;;;32.00;1.00;;;;;;5077273;28;20415;-70
2023/08/18 11:08:12;;;;;;;4.93;4.60;;;32.00;1.00;;;;;;5095393;28;20185;-70
2023/08/18 11:10:40;;;;;;;4.70;4.30;;;32.00;1.00;;;;;;5095425;28;20184;-70
2023/08/18 11:13:10;;;;;;;4.27;3.97;;;32.10;1.00;;;;;;5095117;28;20942;-70
2023/08/18 11:15:35;;;;;;;5.07;4.60;;;32.20;1.00;;;;;;5095145;28;20420;-70
2023/08/18 11:18:01;;;;;;;4.53;4.13;;;32.20;1.00;;;;;;5095195;28;20419;-70
2023/08/18 11:20:26;;;;;;;6.63;4.70;;;32.30;1.00;;;;;;5076835;28;20208;-69
2023/08/18 11:22:52;;;;;;;7.77;4.80;;;32.50;1.00;;;;;;5094622;28;20201;-70
2023/08/18 11:25:22;;;;;;;4.97;4.50;;;32.60;1.00;;;;;;5076957;28;20205;-71
2023/08/18 11:27:49;;;;;;;4.30;4.00;;;32.60;1.00;;;;;;5095253;28;20408;-71
2023/08/18 11:30:15;;;;;;;5.77;4.57;;;32.70;1.00;;;;;;5095298;28;20450;-71
2023/08/18 11:32:42;;;;;;;4.53;4.23;;;32.70;1.00;;;;;;5094767;28;20444;-70
2023/08/18 11:35:12;;;;;;;4.77;4.47;;;32.80;1.00;;;;;;5095341;28;20499;-71
2023/08/18 11:37:43;;;;;;;7.00;4.60;;;32.80;1.00;;;;;;5095237;28;20615;-70
2023/08/18 11:40:12;;;;;;;4.60;4.20;;;32.90;1.00;;;;;;5077250;28;20517;-70
2023/08/18 11:42:41;;;;;;;4.40;4.07;;;32.80;1.00;;;;;;5094395;28;20458;-71
2023/08/18 11:45:15;;;;;;;4.90;4.50;;;32.80;1.00;;;;;;5094478;28;20466;-71
2023/08/18 11:47:41;;;;;;;5.00;4.67;;;32.80;1.00;;;;;;5094677;28;20498;-71
2023/08/18 11:50:13;;;;;;;5.20;4.50;;;32.80;1.00;;;;;;5094762;28;20423;-70
2023/08/18 11:52:46;;;;;;;10.83;4.97;;;32.80;1.00;;;;;;5094251;28;20431;-70
2023/08/18 11:55:13;;;;;;;4.47;4.13;;;32.90;1.00;;;;;;5095022;28;20419;-75
2023/08/18 11:57:44;;;;;;;5.00;4.60;;;32.90;1.00;;;;;;5076872;28;20801;-70
2023/08/18 12:00:13;;;;;;;5.47;5.07;;;32.90;1.00;;;;;;5094825;28;20419;-70
2023/08/18 12:02:46;;;;;;;6.03;4.90;;;33.00;1.00;;;;;;5094211;28;20450;-71
2023/08/18 12:05:22;;;;;;;5.40;5.00;;;32.90;1.00;;;;;;5093920;28;20465;-70
2023/08/18 12:07:54;;;;;;;5.37;4.97;;;33.00;1.00;;;;;;5076304;28;20996;-70
2023/08/18 12:10:21;;;;;;;5.77;4.80;;;33.10;1.00;;;;;;5094771;28;20431;-71
2023/08/18 12:12:54;;;;;;;9.50;5.07;;;33.10;1.00;;;;;;5094012;28;20508;-70
2023/08/18 12:15:23;;;;;;;5.93;4.47;;;33.10;1.00;;;;;;5094442;28;20411;-69
2023/08/18 12:17:49;;;;;;;4.60;4.20;;;33.20;1.00;;;;;;5083827;28;20472;-70
2023/08/18 12:20:18;;;;;;;8.13;4.60;;;33.30;1.00;;;;;;5087680;28;20435;-69
2023/08/18 12:22:45;;;;;;;4.50;4.20;;;33.40;1.00;;;;;;5089246;28;20205;-70
2023/08/18 12:25:13;;;;;;;5.80;4.93;;;33.40;1.00;;;;;;5089923;28;20486;-70
2023/08/18 12:27:39;;;;;;;4.77;4.43;;;33.30;1.00;;;;;;5090019;28;20415;-70
2023/08/18 12:30:06;;;;;;;5.23;4.73;;;33.50;1.00;;;;;;5090526;28;20487;-70
2023/08/18 12:32:32;;;;;;;4.87;4.33;;;33.50;1.00;;;;;;5071070;28;20266;-70
2023/08/18 12:34:58;;;;;;;6.60;5.00;;;33.70;1.00;;;;;;5090742;28;20416;-70
2023/08/18 12:37:24;;;;;;;5.40;4.60;;;33.60;1.00;;;;;;5089389;28;20205;-70
2023/08/18 12:39:50;;;;;;;6.23;4.70;;;33.70;1.00;;;;;;5089488;28;20841;-70
2023/08/18 12:42:16;;;;;;;9.63;4.60;;;33.80;1.00;;;;;;5089042;28;20595;-70
2023/08/18 12:44:41;;;;;;;5.63;4.67;;;33.90;1.00;;;;;;5087425;28;20209;-71
2023/08/18 12:47:07;;;;;;;10.40;4.90;;;34.00;1.00;;;;;;5086170;28;20268;-71
2023/08/18 12:49:33;;;;;;;5.10;4.50;;;34.00;1.00;;;;;;5086740;28;20170;-71
2023/08/18 12:51:59;;;;;;;5.70;4.90;;;33.90;1.00;;;;;;5088956;28;20229;-71